Time;durP1;ratioP1;P1;durP2;ratioP2;P2;SDS_P1;SDS_P2;PMS_P1;PMS_P2;Temp;Humidity;BMP_temperature;BMP_pressure;BME280_temperature;BME280_humidity;BME280_pressure;Samples;Min_cycle;Max_cycle;Signal;HPM_P1;HPM_P2
2023/01/17 00:00:05;;;;;;;2.35;1.77;;;;;;;;;;10451298;28;20052;-77
2023/01/17 00:10:32;;;;;;;2.08;1.33;;;;;;;;;;10448125;28;20045;-76
2023/01/17 00:15:33;;;;;;;2.50;1.30;;;;;;;;;;10422556;28;20060;-75
2023/01/17 00:26:02;;;;;;;2.45;1.50;;;;;;;;;;10440099;28;20610;-75
2023/01/17 01:34:01;;;;;;;1.83;1.23;;;;;;;;;;10446568;28;20053;-76
2023/01/17 01:39:03;;;;;;;2.50;1.30;;;;;;;;;;10435618;28;20044;-76
2023/01/17 01:44:03;;;;;;;2.75;1.15;;;;;;;;;;10485944;28;20037;-75
2023/01/17 01:49:07;;;;;;;1.90;1.10;;;;;;;;;;10447731;28;20128;-75
2023/01/17 01:54:13;;;;;;;1.13;1.02;;;;;;;;;;10436919;28;20046;-75
2023/01/17 01:59:15;;;;;;;2.05;1.33;;;;;;;;;;10433869;28;20049;-75
2023/01/17 02:04:16;;;;;;;2.15;1.90;;;;;;;;;;10438363;28;20064;-75
2023/01/17 02:09:17;;;;;;;3.05;1.70;;;;;;;;;;10448845;28;20127;-75
2023/01/17 02:14:19;;;;;;;2.58;1.65;;;;;;;;;;10450734;28;20551;-75
2023/01/17 02:19:20;;;;;;;2.05;1.65;;;;;;;;;;10442629;28;20541;-74
2023/01/17 02:24:56;;;;;;;2.10;1.70;;;;;;;;;;10460340;28;20060;-77
2023/01/17 02:30:14;;;;;;;2.17;1.77;;;;;;;;;;10331460;28;20355;-75
2023/01/17 02:35:20;;;;;;;1.75;1.52;;;;;;;;;;10451460;28;20037;-74
2023/01/17 02:40:24;;;;;;;2.58;1.42;;;;;;;;;;10442155;28;20044;-75
2023/01/17 02:45:26;;;;;;;;;;;;;;;;;;10457054;28;20040;-73
2023/01/17 02:50:33;;;;;;;3.45;1.65;;;;;;;;;;10454525;28;19927;-75
2023/01/17 02:55:40;;;;;;;1.63;1.40;;;;;;;;;;10427181;28;20041;-74
2023/01/17 03:00:43;;;;;;;2.03;1.40;;;;;;;;;;10434547;28;20068;-75
2023/01/17 03:05:44;;;;;;;;;;;;;;;;;;10447466;28;20057;-74
2023/01/17 03:10:44;;;;;;;2.73;1.73;;;;;;;;;;10434102;28;20364;-72
2023/01/17 03:15:45;;;;;;;2.92;1.80;;;;;;;;;;10451930;28;20049;-80
2023/01/17 03:20:45;;;;;;;2.88;1.73;;;;;;;;;;10437660;28;20396;-78
2023/01/17 03:25:46;;;;;;;3.50;2.00;;;;;;;;;;10430234;28;20825;-75
2023/01/17 03:30:46;;;;;;;3.47;2.08;;;;;;;;;;10456122;28;20044;-74
2023/01/17 03:35:47;;;;;;;4.07;2.30;;;;;;;;;;10422247;28;20511;-75
2023/01/17 03:40:47;;;;;;;3.40;2.10;;;;;;;;;;10428617;28;20481;-74
2023/01/17 03:45:48;;;;;;;2.20;2.00;;;;;;;;;;10428046;28;20067;-72
2023/01/17 03:50:50;;;;;;;3.80;2.25;;;;;;;;;;10431748;28;20648;-74
2023/01/17 03:55:51;;;;;;;3.35;1.88;;;;;;;;;;10435845;28;20049;-74
2023/01/17 04:00:51;;;;;;;3.33;2.15;;;;;;;;;;10427988;28;20414;-74
2023/01/17 04:05:53;;;;;;;3.13;1.97;;;;;;;;;;10439848;28;20048;-75
2023/01/17 04:10:55;;;;;;;3.35;2.00;;;;;;;;;;10442045;28;20346;-74
2023/01/17 04:15:55;;;;;;;3.22;2.00;;;;;;;;;;10470918;28;20056;-77
2023/01/17 04:20:56;;;;;;;3.22;2.00;;;;;;;;;;10455610;28;20493;-74
2023/01/17 04:25:58;;;;;;;3.00;1.75;;;;;;;;;;10424949;28;20045;-74
2023/01/17 04:30:59;;;;;;;3.60;1.92;;;;;;;;;;10428402;28;20144;-75
2023/01/17 04:36:00;;;;;;;3.80;2.10;;;;;;;;;;10459780;28;20810;-74
2023/01/17 04:41:01;;;;;;;3.65;2.13;;;;;;;;;;10433412;28;20049;-76
2023/01/17 04:46:03;;;;;;;3.75;2.33;;;;;;;;;;10446949;28;20111;-75
2023/01/17 04:51:04;;;;;;;2.50;2.27;;;;;;;;;;10443268;28;20048;-75
2023/01/17 04:56:05;;;;;;;3.92;2.42;;;;;;;;;;10437162;28;20140;-75
2023/01/17 05:01:06;;;;;;;2.25;2.03;;;;;;;;;;10456872;28;20764;-74
2023/01/17 05:06:07;;;;;;;5.03;2.42;;;;;;;;;;10418249;28;20056;-74
2023/01/17 05:11:07;;;;;;;3.92;2.58;;;;;;;;;;10445924;28;20049;-74
2023/01/17 05:16:08;;;;;;;5.88;2.80;;;;;;;;;;10455080;28;20048;-75
2023/01/17 05:21:08;;;;;;;3.60;2.83;;;;;;;;;;10447045;28;20057;-75
2023/01/17 05:26:09;;;;;;;3.93;2.47;;;;;;;;;;10439247;28;20075;-73
2023/01/17 05:31:09;;;;;;;3.83;2.50;;;;;;;;;;10446081;28;20303;-76
2023/01/17 05:36:10;;;;;;;4.18;2.50;;;;;;;;;;10423611;28;20143;-74
2023/01/17 05:41:10;;;;;;;3.65;2.65;;;;;;;;;;10425660;28;20045;-74
2023/01/17 05:46:11;;;;;;;5.60;3.70;;;;;;;;;;10438203;28;20049;-75
2023/01/17 05:51:12;;;;;;;5.25;3.03;;;;;;;;;;10431468;28;20033;-75
2023/01/17 05:56:13;;;;;;;4.93;3.55;;;;;;;;;;10431225;28;20058;-75
2023/01/17 06:01:13;;;;;;;6.90;3.97;;;;;;;;;;10444203;28;20048;-75
2023/01/17 06:06:14;;;;;;;5.88;2.78;;;;;;;;;;10448323;28;20064;-75
2023/01/17 06:11:15;;;;;;;5.72;3.53;;;;;;;;;;10438791;28;20183;-73
2023/01/17 06:16:16;;;;;;;5.95;3.80;;;;;;;;;;10431072;28;20505;-75
2023/01/17 06:21:17;;;;;;;5.93;3.80;;;;;;;;;;10496689;28;20128;-76
2023/01/17 06:26:18;;;;;;;3.97;2.97;;;;;;;;;;10483929;28;20056;-76
2023/01/17 06:31:19;;;;;;;6.63;3.20;;;;;;;;;;10478934;28;20052;-72
2023/01/17 06:36:19;;;;;;;5.67;3.13;;;;;;;;;;10461994;28;20397;-76
2023/01/17 06:41:22;;;;;;;7.22;3.10;;;;;;;;;;10448175;28;20794;-75
2023/01/17 06:46:22;;;;;;;6.05;3.22;;;;;;;;;;10455388;28;20102;-77
2023/01/17 06:51:23;;;;;;;4.45;2.20;;;;;;;;;;10455762;28;20385;-74
2023/01/17 06:56:30;;;;;;;3.30;2.80;;;;;;;;;;10452473;28;20045;-76
2023/01/17 07:01:32;;;;;;;4.50;2.85;;;;;;;;;;10448287;28;20056;-75
2023/01/17 07:06:34;;;;;;;4.85;3.20;;;;;;;;;;10456343;28;20048;-73
2023/01/17 07:11:35;;;;;;;3.80;2.80;;;;;;;;;;10425866;28;20044;-75
2023/01/17 07:16:36;;;;;;;4.60;3.20;;;;;;;;;;10448051;28;20057;-76
2023/01/17 07:21:38;;;;;;;5.15;2.75;;;;;;;;;;10432728;28;20075;-75
2023/01/17 07:26:40;;;;;;;6.18;3.15;;;;;;;;;;10440053;28;20061;-77
2023/01/17 07:31:41;;;;;;;4.22;2.38;;;;;;;;;;10443240;28;20114;-74
2023/01/17 07:36:43;;;;;;;5.75;2.88;;;;;;;;;;10457621;28;20493;-75
2023/01/17 07:41:44;;;;;;;5.75;3.10;;;;;;;;;;10458661;28;20131;-76
2023/01/17 07:46:45;;;;;;;6.20;3.28;;;;;;;;;;10432475;28;20050;-78
2023/01/17 07:51:46;;;;;;;6.13;3.30;;;;;;;;;;10456447;28;20049;-79
2023/01/17 07:56:47;;;;;;;4.70;3.47;;;;;;;;;;10434736;28;20507;-79
2023/01/17 08:01:48;;;;;;;4.65;3.35;;;;;;;;;;10445533;28;20064;-75
2023/01/17 08:06:53;;;;;;;5.57;3.22;;;;;;;;;;10429012;28;20553;-76
2023/01/17 08:11:57;;;;;;;6.32;2.97;;;;;;;;;;10441658;28;20522;-77
2023/01/17 08:17:08;;;;;;;6.03;3.85;;;;;;;;;;10447880;28;20056;-76
2023/01/17 08:22:13;;;;;;;7.18;3.92;;;;;;;;;;10450019;28;20052;-76
2023/01/17 08:27:14;;;;;;;8.00;4.55;;;;;;;;;;10459645;28;20049;-79
2023/01/17 08:32:16;;;;;;;6.68;4.18;;;;;;;;;;10483321;28;20032;-80
2023/01/17 08:37:17;;;;;;;6.25;4.10;;;;;;;;;;10499338;28;20025;-77
2023/01/17 08:42:18;;;;;;;6.55;3.90;;;;;;;;;;10510137;28;20101;-75
2023/01/17 08:47:20;;;;;;;7.07;3.53;;;;;;;;;;10429572;28;20077;-77
2023/01/17 08:52:20;;;;;;;6.05;4.13;;;;;;;;;;10466190;28;20040;-78
2023/01/17 08:57:21;;;;;;;5.70;3.42;;;;;;;;;;10475651;28;20024;-75
2023/01/17 09:02:23;;;;;;;7.63;3.28;;;;;;;;;;10427730;28;20037;-76
2023/01/17 09:07:25;;;;;;;6.45;3.47;;;;;;;;;;10408248;28;20091;-76
2023/01/17 09:12:26;;;;;;;;;;;;;;;;;;10405477;28;20034;-76
2023/01/17 09:17:27;;;;;;;6.35;3.58;;;;;;;;;;10409585;28;19913;-77
2023/01/17 09:22:28;;;;;;;4.90;3.20;;;;;;;;;;10413234;28;20396;-75
2023/01/17 09:27:29;;;;;;;7.60;3.17;;;;;;;;;;10389253;28;20057;-75
2023/01/17 09:32:30;;;;;;;6.43;3.08;;;;;;;;;;10391883;28;20285;-80
2023/01/17 09:37:36;;;;;;;4.93;2.97;;;;;;;;;;10411762;28;20509;-79
2023/01/17 09:42:39;;;;;;;4.95;2.92;;;;;;;;;;10415283;28;20045;-79
2023/01/17 09:47:43;;;;;;;4.50;2.60;;;;;;;;;;10383761;28;20077;-82
2023/01/17 09:52:43;;;;;;;4.35;2.40;;;;;;;;;;10439741;28;20064;-78
2023/01/17 09:57:46;;;;;;;5.50;2.80;;;;;;;;;;10430165;28;20040;-78
2023/01/17 10:03:06;;;;;;;4.43;2.47;;;;;;;;;;10425466;28;20073;-78
2023/01/17 10:08:25;;;;;;;5.05;2.25;;;;;;;;;;10433525;28;20042;-78
2023/01/17 10:13:46;;;;;;;3.05;2.35;;;;;;;;;;10456864;28;20057;-78
2023/01/17 10:18:56;;;;;;;3.97;2.60;;;;;;;;;;10413035;28;20077;-81
2023/01/17 10:24:15;;;;;;;4.72;2.70;;;;;;;;;;10427682;28;20065;-79
2023/01/17 10:29:18;;;;;;;5.55;2.65;;;;;;;;;;10444348;28;20075;-79
2023/01/17 10:34:27;;;;;;;3.38;2.17;;;;;;;;;;10429230;28;20492;-77
2023/01/17 10:39:50;;;;;;;5.18;2.88;;;;;;;;;;10411904;28;20046;-79
2023/01/17 10:45:14;;;;;;;4.93;2.30;;;;;;;;;;10413418;28;20564;-80
2023/01/17 10:50:17;;;;;;;3.80;2.42;;;;;;;;;;10450593;28;20056;-81
2023/01/17 10:55:29;;;;;;;4.63;2.95;;;;;;;;;;10458843;28;20144;-79
2023/01/17 11:00:49;;;;;;;6.38;3.10;;;;;;;;;;10450082;28;20144;-77
2023/01/17 11:06:19;;;;;;;4.07;2.78;;;;;;;;;;10440890;28;20115;-77
2023/01/17 11:11:22;;;;;;;5.03;2.70;;;;;;;;;;10421515;28;20120;-81
2023/01/17 11:16:26;;;;;;;3.20;2.28;;;;;;;;;;10493296;28;20029;-77
2023/01/17 11:21:27;;;;;;;4.00;2.33;;;;;;;;;;10499877;28;20121;-76
2023/01/17 11:26:29;;;;;;;4.47;2.70;;;;;;;;;;10434157;28;20053;-78
2023/01/17 11:31:29;;;;;;;3.60;2.13;;;;;;;;;;10439362;28;20052;-80
2023/01/17 11:36:30;;;;;;;4.93;2.20;;;;;;;;;;10448585;28;20657;-77
2023/01/17 11:41:33;;;;;;;4.22;2.58;;;;;;;;;;10444257;28;20136;-80
2023/01/17 11:46:33;;;;;;;3.47;2.10;;;;;;;;;;10419026;28;20063;-76
2023/01/17 11:51:40;;;;;;;5.13;2.83;;;;;;;;;;10443548;28;20052;-78
2023/01/17 11:56:45;;;;;;;4.00;2.42;;;;;;;;;;10456948;28;20045;-80
2023/01/17 12:02:30;;;;;;;2.65;1.90;;;;;;;;;;10447491;28;20047;-77
2023/01/17 12:07:33;;;;;;;2.10;1.60;;;;;;;;;;10428633;28;20505;-79
2023/01/17 12:18:25;;;;;;;2.63;1.90;;;;;;;;;;10450318;28;20119;-78
2023/01/17 12:23:32;;;;;;;4.55;2.20;;;;;;;;;;10449621;28;20714;-78
2023/01/17 12:28:51;;;;;;;6.00;2.53;;;;;;;;;;10444194;28;20049;-80
2023/01/17 12:34:03;;;;;;;4.38;2.83;;;;;;;;;;10485924;28;20101;-78
2023/01/17 12:39:10;;;;;;;3.78;2.45;;;;;;;;;;10443293;28;20056;-76
2023/01/17 12:44:15;;;;;;;3.38;2.03;;;;;;;;;;10463853;28;20063;-78
2023/01/17 12:49:22;;;;;;;4.20;1.90;;;;;;;;;;10447026;28;20081;-76
2023/01/17 12:54:25;;;;;;;4.43;2.28;;;;;;;;;;10437321;28;20049;-79
2023/01/17 12:59:41;;;;;;;2.58;2.10;;;;;;;;;;10452524;28;20123;-76
2023/01/17 13:04:46;;;;;;;2.97;2.03;;;;;;;;;;10445193;28;20052;-77
2023/01/17 13:09:50;;;;;;;2.72;1.60;;;;;;;;;;10448764;28;20085;-77
2023/01/17 13:14:53;;;;;;;4.40;2.00;;;;;;;;;;10449177;28;20052;-78
2023/01/17 13:20:16;;;;;;;2.92;1.50;;;;;;;;;;10447791;28;20045;-76
2023/01/17 13:25:40;;;;;;;3.35;1.45;;;;;;;;;;10464779;28;20055;-76
2023/01/17 13:30:59;;;;;;;6.07;2.30;;;;;;;;;;10464502;28;20129;-78
2023/01/17 13:36:00;;;;;;;3.83;2.03;;;;;;;;;;10474561;28;20052;-76
2023/01/17 13:41:20;;;;;;;3.53;1.90;;;;;;;;;;10511147;28;20025;-76
2023/01/17 13:46:20;;;;;;;3.83;1.80;;;;;;;;;;10484361;28;20080;-76
2023/01/17 13:51:41;;;;;;;3.22;1.60;;;;;;;;;;10434792;28;20578;-76
2023/01/17 13:56:41;;;;;;;1.90;1.42;;;;;;;;;;10454755;28;20044;-78
2023/01/17 14:01:42;;;;;;;3.90;1.50;;;;;;;;;;10435931;28;20060;-76
2023/01/17 14:06:51;;;;;;;2.72;1.60;;;;;;;;;;10461363;28;20056;-75
2023/01/17 14:12:13;;;;;;;2.10;1.52;;;;;;;;;;10424667;28;20512;-78
2023/01/17 14:17:51;;;;;;;3.03;1.63;;;;;;;;;;10434073;28;20052;-78
2023/01/17 14:22:47;;;;;;;4.55;2.15;;;;;;;;;;10432208;28;20044;-76
2023/01/17 14:27:50;;;;;;;5.15;2.00;;;;;;;;;;10458777;28;20073;-77
2023/01/17 14:33:00;;;;;;;2.75;1.80;;;;;;;;;;10446492;28;20105;-78
2023/01/17 14:38:04;;;;;;;4.07;1.80;;;;;;;;;;10430395;28;20045;-75
2023/01/17 14:43:09;;;;;;;3.40;1.70;;;;;;;;;;10447210;28;20056;-76
2023/01/17 14:48:20;;;;;;;4.47;1.98;;;;;;;;;;10446751;28;20701;-76
2023/01/17 14:53:26;;;;;;;3.72;1.63;;;;;;;;;;10442128;28;20272;-76
2023/01/17 14:58:27;;;;;;;2.90;1.60;;;;;;;;;;10453813;28;20038;-76
2023/01/17 15:03:29;;;;;;;2.28;1.50;;;;;;;;;;10450401;28;20408;-77
2023/01/17 15:08:34;;;;;;;2.35;1.55;;;;;;;;;;10430710;28;20061;-75
2023/01/17 15:13:37;;;;;;;3.40;1.70;;;;;;;;;;10458627;28;20040;-76
2023/01/17 15:18:38;;;;;;;2.55;1.83;;;;;;;;;;10433665;28;20049;-76
2023/01/17 15:23:42;;;;;;;3.42;1.58;;;;;;;;;;10448197;28;20128;-77
2023/01/17 15:28:45;;;;;;;2.63;1.65;;;;;;;;;;10439001;28;20053;-76
2023/01/17 15:33:46;;;;;;;;;;;;;;;;;;10436585;28;20052;-75
2023/01/17 15:38:58;;;;;;;4.85;2.17;;;;;;;;;;10433427;28;19919;-75
2023/01/17 15:43:59;;;;;;;5.78;2.53;;;;;;;;;;10427282;28;20064;-75
2023/01/17 15:49:12;;;;;;;3.13;2.00;;;;;;;;;;10432202;28;20073;-76
2023/01/17 15:54:46;;;;;;;4.40;2.15;;;;;;;;;;10448121;28;20044;-77
2023/01/17 15:59:46;;;;;;;5.55;3.83;;;;;;;;;;10414565;28;20078;-74
2023/01/17 16:04:47;;;;;;;4.70;2.88;;;;;;;;;;10458451;28;20767;-75
2023/01/17 16:09:47;;;;;;;4.40;3.20;;;;;;;;;;10425305;28;20548;-75
2023/01/17 16:14:48;;;;;;;4.85;2.75;;;;;;;;;;10437097;28;20794;-76
2023/01/17 16:19:49;;;;;;;4.85;2.50;;;;;;;;;;10453438;28;20037;-75
2023/01/17 16:24:49;;;;;;;4.18;2.80;;;;;;;;;;10448734;28;20032;-76
2023/01/17 16:29:50;;;;;;;3.88;2.53;;;;;;;;;;10438020;28;20052;-74
2023/01/17 16:34:50;;;;;;;7.10;3.13;;;;;;;;;;10447747;28;20049;-75
2023/01/17 16:39:50;;;;;;;7.68;3.63;;;;;;;;;;10464470;28;20051;-76
2023/01/17 16:44:51;;;;;;;5.20;3.33;;;;;;;;;;10430389;28;20053;-74
2023/01/17 16:49:52;;;;;;;6.45;3.53;;;;;;;;;;10450667;28;20295;-76
2023/01/17 16:54:52;;;;;;;4.47;2.90;;;;;;;;;;10453019;28;20493;-76
2023/01/17 16:59:53;;;;;;;9.18;3.45;;;;;;;;;;10442612;28;20041;-74
2023/01/17 17:04:54;;;;;;;4.38;2.90;;;;;;;;;;10441537;28;20048;-75
2023/01/17 17:09:56;;;;;;;4.53;2.53;;;;;;;;;;10446231;28;20132;-76
2023/01/17 17:14:57;;;;;;;6.88;4.30;;;;;;;;;;10451291;28;20048;-76
2023/01/17 17:19:58;;;;;;;7.00;4.05;;;;;;;;;;10451180;28;20076;-74
2023/01/17 17:24:59;;;;;;;6.85;3.90;;;;;;;;;;10474259;28;20091;-75
2023/01/17 17:30:02;;;;;;;7.00;4.10;;;;;;;;;;10492009;28;20056;-74
2023/01/17 17:35:03;;;;;;;5.38;3.88;;;;;;;;;;10461647;28;20049;-76
2023/01/17 17:40:05;;;;;;;8.80;5.30;;;;;;;;;;10455306;28;20744;-77
2023/01/17 17:45:05;;;;;;;11.63;8.13;;;;;;;;;;10436551;28;20060;-79
2023/01/17 17:50:08;;;;;;;9.23;5.90;;;;;;;;;;10459265;28;20127;-77
2023/01/17 17:55:11;;;;;;;11.10;6.00;;;;;;;;;;10455886;28;20044;-76
2023/01/17 18:00:13;;;;;;;10.52;5.93;;;;;;;;;;10432218;28;20464;-75
2023/01/17 18:05:13;;;;;;;7.63;5.82;;;;;;;;;;10428764;28;20139;-75
2023/01/17 18:10:13;;;;;;;9.27;6.18;;;;;;;;;;10430063;28;20061;-77
2023/01/17 18:15:14;;;;;;;10.55;6.35;;;;;;;;;;10392514;28;20107;-75
2023/01/17 18:20:15;;;;;;;9.13;6.93;;;;;;;;;;10416630;28;20115;-76
2023/01/17 18:25:16;;;;;;;9.23;7.53;;;;;;;;;;10401058;28;20080;-76
2023/01/17 18:30:18;;;;;;;10.07;6.55;;;;;;;;;;10400484;28;20137;-77
2023/01/17 18:35:18;;;;;;;11.68;7.20;;;;;;;;;;10388269;28;20040;-79
2023/01/17 18:40:19;;;;;;;12.70;7.95;;;;;;;;;;10411378;28;20044;-77
2023/01/17 18:45:20;;;;;;;10.23;7.70;;;;;;;;;;10410047;28;20048;-74
2023/01/17 18:50:20;;;;;;;10.38;7.18;;;;;;;;;;10407650;28;20049;-76
2023/01/17 18:55:21;;;;;;;10.55;7.45;;;;;;;;;;10379786;28;20124;-75
2023/01/17 19:00:21;;;;;;;11.52;8.07;;;;;;;;;;10404111;28;20049;-76
2023/01/17 19:05:23;;;;;;;10.20;6.57;;;;;;;;;;10408262;28;20041;-74
2023/01/17 19:10:24;;;;;;;10.43;6.93;;;;;;;;;;10390010;28;20053;-74
2023/01/17 19:15:25;;;;;;;10.50;6.80;;;;;;;;;;10405026;28;20119;-73
2023/01/17 19:20:25;;;;;;;8.93;6.03;;;;;;;;;;10388627;28;20041;-76
2023/01/17 19:25:26;;;;;;;9.88;6.28;;;;;;;;;;10405575;28;20033;-74
2023/01/17 19:30:28;;;;;;;12.82;7.20;;;;;;;;;;10384380;28;20884;-76
2023/01/17 19:35:29;;;;;;;16.70;9.07;;;;;;;;;;10405574;28;20051;-76
2023/01/17 19:40:29;;;;;;;12.88;7.75;;;;;;;;;;10398682;28;20040;-74
2023/01/17 19:45:30;;;;;;;8.18;6.15;;;;;;;;;;10417781;28;20037;-76
2023/01/17 19:50:30;;;;;;;12.73;7.60;;;;;;;;;;10413604;28;20053;-76
2023/01/17 19:55:30;;;;;;;12.40;8.68;;;;;;;;;;10397042;28;20077;-76
2023/01/17 20:00:34;;;;;;;11.70;7.53;;;;;;;;;;10396890;28;20492;-77
2023/01/17 20:05:36;;;;;;;12.82;8.07;;;;;;;;;;10414942;28;20045;-77
2023/01/17 20:10:37;;;;;;;10.30;7.45;;;;;;;;;;10431265;28;20469;-77
2023/01/17 20:15:42;;;;;;;10.98;6.68;;;;;;;;;;10422037;28;20053;-76
2023/01/17 20:20:44;;;;;;;10.80;6.55;;;;;;;;;;10401822;28;20045;-80
2023/01/17 20:25:57;;;;;;;14.03;6.80;;;;;;;;;;10409349;28;20061;-80
2023/01/17 20:31:03;;;;;;;10.93;6.22;;;;;;;;;;10395321;28;20049;-77
2023/01/17 20:36:05;;;;;;;9.90;6.93;;;;;;;;;;10384760;28;20054;-76
2023/01/17 20:41:05;;;;;;;10.90;6.75;;;;;;;;;;10397164;28;20049;-76
2023/01/17 20:46:06;;;;;;;9.38;6.03;;;;;;;;;;10435714;28;20040;-74
2023/01/17 20:51:09;;;;;;;7.63;5.80;;;;;;;;;;10429963;28;20075;-75
2023/01/17 20:56:12;;;;;;;9.23;6.88;;;;;;;;;;10416681;28;20051;-77
2023/01/17 21:01:17;;;;;;;11.52;6.65;;;;;;;;;;10413244;28;20041;-76
2023/01/17 21:06:19;;;;;;;9.80;6.65;;;;;;;;;;10405173;28;20239;-77
2023/01/17 21:11:23;;;;;;;10.00;6.72;;;;;;;;;;10409434;28;20046;-75
2023/01/17 21:16:26;;;;;;;11.38;7.15;;;;;;;;;;10399985;28;20508;-75
2023/01/17 21:21:28;;;;;;;10.13;6.80;;;;;;;;;;10390734;28;20038;-76
2023/01/17 21:26:28;;;;;;;9.63;6.47;;;;;;;;;;10407085;28;20203;-77
2023/01/17 21:31:32;;;;;;;8.45;5.63;;;;;;;;;;10407597;28;20052;-74
2023/01/17 21:36:35;;;;;;;8.63;5.88;;;;;;;;;;10404448;28;20041;-76
2023/01/17 21:41:37;;;;;;;10.32;5.47;;;;;;;;;;10375055;28;20049;-76
2023/01/17 21:46:38;;;;;;;9.13;5.28;;;;;;;;;;10409920;28;20172;-76
2023/01/17 22:02:11;;;;;;;6.40;4.50;;;;;;;;;;10407831;28;20163;-76
2023/01/17 22:07:12;;;;;;;7.00;4.82;;;;;;;;;;10410340;28;20055;-77
2023/01/17 22:12:12;;;;;;;6.38;5.20;;;;;;;;;;10408853;28;20049;-76
2023/01/17 22:17:14;;;;;;;8.23;4.63;;;;;;;;;;10411240;28;20045;-76
2023/01/17 22:22:15;;;;;;;8.30;4.82;;;;;;;;;;10424044;28;20314;-74
2023/01/17 22:27:16;;;;;;;6.10;4.45;;;;;;;;;;10420709;28;20072;-73
2023/01/17 22:32:16;;;;;;;6.15;4.55;;;;;;;;;;10394060;28;20732;-78
2023/01/17 22:37:17;;;;;;;6.82;4.32;;;;;;;;;;10415655;28;20049;-75
2023/01/17 22:42:17;;;;;;;8.80;5.20;;;;;;;;;;10410726;28;20038;-76
2023/01/17 22:47:18;;;;;;;8.10;5.37;;;;;;;;;;10373232;28;20054;-74
2023/01/17 22:52:18;;;;;;;8.70;5.30;;;;;;;;;;10403017;28;20353;-78
2023/01/17 22:57:19;;;;;;;6.93;5.70;;;;;;;;;;10404522;28;20131;-74
2023/01/17 23:02:19;;;;;;;8.25;5.00;;;;;;;;;;10384924;28;20052;-76
2023/01/17 23:07:25;;;;;;;7.65;5.78;;;;;;;;;;10400632;28;20064;-75
2023/01/17 23:12:26;;;;;;;7.45;5.35;;;;;;;;;;10421269;28;20099;-76
2023/01/17 23:22:48;;;;;;;10.30;6.22;;;;;;;;;;10417400;28;20860;-75
2023/01/17 23:33:14;;;;;;;10.75;5.63;;;;;;;;;;10408682;28;20076;-77
2023/01/17 23:38:47;;;;;;;9.10;5.78;;;;;;;;;;10409260;28;20550;-76
2023/01/17 23:43:55;;;;;;;8.48;5.35;;;;;;;;;;10412018;28;20045;-74
2023/01/17 23:48:56;;;;;;;7.97;4.75;;;;;;;;;;10409610;28;20064;-75
2023/01/17 23:54:04;;;;;;;7.90;5.30;;;;;;;;;;10393691;28;20057;-74
2023/01/17 23:59:05;;;;;;;8.77;5.00;;;;;;;;;;10396416;28;20448;-74
